This is the latest recevied weather packets stored in our database for station/object OE6JUE. If no packets are shown the sender has not sent any weather packets the latest 10 day(s).
| Time | Temp. | Humidity | Pressure | Rain* | Wind** | Luminosity | Snow |
|---|---|---|---|---|---|---|---|
| 1788187420 | 32.22° C | 20% | 1015.7 hPa | 0 mm | - | - | - |
| 1788187120 | 33.33° C | 11% | 1015.7 hPa | 0 mm | - | - | - |
| 1788186820 | 32.78° C | 12% | 1015.7 hPa | 0 mm | - | - | - |
| 1788186520 | 32.78° C | 11% | 1015.8 hPa | 0 mm | - | - | - |
| 1788186220 | 33.33° C | 13% | 1015.9 hPa | 0 mm | - | - | - |
| 1788185921 | 33.89° C | 12% | 1015.8 hPa | 0 mm | - | - | - |
| 1788185620 | 33.33° C | 20% | 1015.9 hPa | 0 mm | - | - | - |
| 1788185321 | 32.78° C | 11% | 1015.8 hPa | 0 mm | - | - | - |
| 1788185021 | 33.33° C | 11% | 1016 hPa | 0 mm | - | - | - |
| 1788184721 | 33.89° C | 20% | 1016.1 hPa | 0 mm | - | - | - |
| 1788184420 | 33.33° C | 11% | 1016 hPa | 0 mm | - | - | - |
| 1788184120 | 34.44° C | 12% | 1016.1 hPa | 0 mm | - | - | - |
| 1788183820 | 35° C | 12% | 1016.2 hPa | 0 mm | - | - | - |
| 1788183521 | 35° C | 12% | 1015.9 hPa | 0 mm | - | - | - |
| 1788183220 | 35° C | 12% | 1016.1 hPa | 0 mm | - | - | - |
| 1788182921 | 34.44° C | 11% | 1016.1 hPa | 0 mm | - | - | - |
| 1788182620 | 33.89° C | 20% | 1016.2 hPa | 0 mm | - | - | - |
| 1788182320 | 32.78° C | 20% | 1016.3 hPa | 0 mm | - | - | - |
| 1788182021 | 32.22° C | 21% | 1016.4 hPa | 0 mm | - | - | - |
| 1788181721 | 32.78° C | 11% | 1016.3 hPa | 0 mm | - | - | - |
| 1788181421 | 32.78° C | 20% | 1016.5 hPa | 0 mm | - | - | - |
| 1788181120 | 32.78° C | 20% | 1016.4 hPa | 0 mm | - | - | - |
| 1788180821 | 32.78° C | 20% | 1016.4 hPa | 0 mm | - | - | - |
| 1788180520 | 32.78° C | 20% | 1016.5 hPa | 0 mm | - | - | - |
| 1788180221 | 32.78° C | 20% | 1016.5 hPa | 0 mm | - | - | - |
* Rain latest hour (hover to see other rain measurements)
** Current wind speed in m/s (hover to see current wind gust speed)